sensor_id;sensor_type;location;lat;lon;timestamp;temperature;humidity
21759;DHT22;11041;50.854;20.580;2022-11-14T00:01:50;7.60;99.90
21759;DHT22;11041;50.854;20.580;2022-11-14T00:04:17;7.60;99.90
21759;DHT22;11041;50.854;20.580;2022-11-14T00:06:48;7.60;99.90
21759;DHT22;11041;50.854;20.580;2022-11-14T00:09:27;7.60;99.90
21759;DHT22;11041;50.854;20.580;2022-11-14T00:11:54;7.50;99.90
21759;DHT22;11041;50.854;20.580;2022-11-14T00:14:21;7.50;99.90
21759;DHT22;11041;50.854;20.580;2022-11-14T00:16:47;7.50;99.90
21759;DHT22;11041;50.854;20.580;2022-11-14T00:19:14;7.50;99.90
21759;DHT22;11041;50.854;20.580;2022-11-14T00:21:40;7.40;99.90
21759;DHT22;11041;50.854;20.580;2022-11-14T00:24:07;7.40;99.90
21759;DHT22;11041;50.854;20.580;2022-11-14T00:26:33;7.40;99.90
21759;DHT22;11041;50.854;20.580;2022-11-14T00:29:00;7.40;99.90
21759;DHT22;11041;50.854;20.580;2022-11-14T00:31:26;7.30;99.90
21759;DHT22;11041;50.854;20.580;2022-11-14T00:33:53;7.30;99.90
21759;DHT22;11041;50.854;20.580;2022-11-14T00:36:19;7.30;99.90
21759;DHT22;11041;50.854;20.580;2022-11-14T00:38:46;7.30;99.90
21759;DHT22;11041;50.854;20.580;2022-11-14T00:41:12;7.30;99.90
21759;DHT22;11041;50.854;20.580;2022-11-14T00:43:39;7.30;99.90
21759;DHT22;11041;50.854;20.580;2022-11-14T00:46:05;7.20;99.90
21759;DHT22;11041;50.854;20.580;2022-11-14T00:48:32;7.10;99.90
21759;DHT22;11041;50.854;20.580;2022-11-14T00:50:58;7.10;99.90
21759;DHT22;11041;50.854;20.580;2022-11-14T00:53:25;7.10;99.90
21759;DHT22;11041;50.854;20.580;2022-11-14T00:55:51;7.00;99.90
21759;DHT22;11041;50.854;20.580;2022-11-14T00:58:18;7.00;99.90
21759;DHT22;11041;50.854;20.580;2022-11-14T01:00:44;7.00;99.90
21759;DHT22;11041;50.854;20.580;2022-11-14T01:03:11;7.00;99.90
21759;DHT22;11041;50.854;20.580;2022-11-14T01:05:43;7.10;99.90
21759;DHT22;11041;50.854;20.580;2022-11-14T01:08:12;7.10;99.90
21759;DHT22;11041;50.854;20.580;2022-11-14T01:10:42;7.10;99.90
21759;DHT22;11041;50.854;20.580;2022-11-14T01:13:10;7.10;99.90
21759;DHT22;11041;50.854;20.580;2022-11-14T01:15:43;7.10;99.90
21759;DHT22;11041;50.854;20.580;2022-11-14T01:18:16;7.10;99.90
21759;DHT22;11041;50.854;20.580;2022-11-14T01:20:46;7.10;99.90
21759;DHT22;11041;50.854;20.580;2022-11-14T01:23:15;7.10;99.90
21759;DHT22;11041;50.854;20.580;2022-11-14T01:25:42;7.00;99.90
21759;DHT22;11041;50.854;20.580;2022-11-14T01:28:15;7.00;99.90
21759;DHT22;11041;50.854;20.580;2022-11-14T01:30:43;7.00;99.90
21759;DHT22;11041;50.854;20.580;2022-11-14T01:33:11;7.00;99.90
21759;DHT22;11041;50.854;20.580;2022-11-14T01:35:38;7.00;99.90
21759;DHT22;11041;50.854;20.580;2022-11-14T01:38:05;7.10;99.90
21759;DHT22;11041;50.854;20.580;2022-11-14T01:40:32;7.10;99.90
21759;DHT22;11041;50.854;20.580;2022-11-14T01:43:21;7.00;99.90
21759;DHT22;11041;50.854;20.580;2022-11-14T01:46:11;7.00;99.90
21759;DHT22;11041;50.854;20.580;2022-11-14T01:48:48;7.10;99.90
21759;DHT22;11041;50.854;20.580;2022-11-14T01:54:33;7.10;99.90
21759;DHT22;11041;50.854;20.580;2022-11-14T01:57:03;7.00;99.90
21759;DHT22;11041;50.854;20.580;2022-11-14T01:59:35;7.10;99.90
21759;DHT22;11041;50.854;20.580;2022-11-14T02:02:21;7.00;99.90
21759;DHT22;11041;50.854;20.580;2022-11-14T02:04:55;7.00;99.90
21759;DHT22;11041;50.854;20.580;2022-11-14T02:07:27;7.00;99.90
21759;DHT22;11041;50.854;20.580;2022-11-14T02:09:58;7.00;99.90
21759;DHT22;11041;50.854;20.580;2022-11-14T02:12:28;7.00;99.90
21759;DHT22;11041;50.854;20.580;2022-11-14T02:14:56;7.00;99.90
21759;DHT22;11041;50.854;20.580;2022-11-14T02:17:24;6.90;99.90
21759;DHT22;11041;50.854;20.580;2022-11-14T02:22:43;6.90;99.90
21759;DHT22;11041;50.854;20.580;2022-11-14T02:25:12;6.80;99.90
21759;DHT22;11041;50.854;20.580;2022-11-14T02:27:43;6.80;99.90
21759;DHT22;11041;50.854;20.580;2022-11-14T02:30:13;6.80;99.90
21759;DHT22;11041;50.854;20.580;2022-11-14T02:32:41;6.80;99.90
21759;DHT22;11041;50.854;20.580;2022-11-14T02:35:08;6.70;99.90
21759;DHT22;11041;50.854;20.580;2022-11-14T02:37:35;6.70;99.90
21759;DHT22;11041;50.854;20.580;2022-11-14T02:40:03;6.70;99.90
21759;DHT22;11041;50.854;20.580;2022-11-14T02:42:30;6.70;99.90
21759;DHT22;11041;50.854;20.580;2022-11-14T02:44:57;6.60;99.90
21759;DHT22;11041;50.854;20.580;2022-11-14T02:47:23;6.70;99.90
21759;DHT22;11041;50.854;20.580;2022-11-14T02:49:50;6.70;99.90
21759;DHT22;11041;50.854;20.580;2022-11-14T02:52:17;6.70;99.90
21759;DHT22;11041;50.854;20.580;2022-11-14T02:54:44;6.60;99.90
21759;DHT22;11041;50.854;20.580;2022-11-14T02:57:10;6.60;99.90
21759;DHT22;11041;50.854;20.580;2022-11-14T02:59:37;6.60;99.90
21759;DHT22;11041;50.854;20.580;2022-11-14T03:02:03;6.70;99.90
21759;DHT22;11041;50.854;20.580;2022-11-14T03:04:30;6.60;99.90
21759;DHT22;11041;50.854;20.580;2022-11-14T03:06:56;6.60;99.90
21759;DHT22;11041;50.854;20.580;2022-11-14T03:09:23;6.50;99.90
21759;DHT22;11041;50.854;20.580;2022-11-14T03:11:49;6.60;99.90
21759;DHT22;11041;50.854;20.580;2022-11-14T03:14:16;6.60;99.90
21759;DHT22;11041;50.854;20.580;2022-11-14T03:16:42;6.60;99.90
21759;DHT22;11041;50.854;20.580;2022-11-14T03:19:09;6.50;99.90
21759;DHT22;11041;50.854;20.580;2022-11-14T03:21:35;6.60;99.90
21759;DHT22;11041;50.854;20.580;2022-11-14T03:24:02;6.50;99.90
21759;DHT22;11041;50.854;20.580;2022-11-14T03:26:28;6.60;99.90
21759;DHT22;11041;50.854;20.580;2022-11-14T03:28:55;6.60;99.90
21759;DHT22;11041;50.854;20.580;2022-11-14T03:31:22;6.60;99.90
21759;DHT22;11041;50.854;20.580;2022-11-14T03:33:48;6.60;99.90
21759;DHT22;11041;50.854;20.580;2022-11-14T03:36:14;6.60;99.90
21759;DHT22;11041;50.854;20.580;2022-11-14T03:38:42;6.50;99.90
21759;DHT22;11041;50.854;20.580;2022-11-14T03:41:08;6.60;99.90
21759;DHT22;11041;50.854;20.580;2022-11-14T03:43:35;6.60;99.90
21759;DHT22;11041;50.854;20.580;2022-11-14T03:46:02;6.50;99.90
21759;DHT22;11041;50.854;20.580;2022-11-14T03:48:29;6.50;99.90
21759;DHT22;11041;50.854;20.580;2022-11-14T03:50:56;6.50;99.90
21759;DHT22;11041;50.854;20.580;2022-11-14T03:53:23;6.50;99.90
21759;DHT22;11041;50.854;20.580;2022-11-14T03:55:50;6.50;99.90
21759;DHT22;11041;50.854;20.580;2022-11-14T03:58:17;6.50;99.90
21759;DHT22;11041;50.854;20.580;2022-11-14T04:00:44;6.50;99.90
21759;DHT22;11041;50.854;20.580;2022-11-14T04:03:10;6.50;99.90
21759;DHT22;11041;50.854;20.580;2022-11-14T04:05:37;6.50;99.90
21759;DHT22;11041;50.854;20.580;2022-11-14T04:08:04;6.50;99.90
21759;DHT22;11041;50.854;20.580;2022-11-14T04:10:31;6.50;99.90
21759;DHT22;11041;50.854;20.580;2022-11-14T04:12:58;6.60;99.90
21759;DHT22;11041;50.854;20.580;2022-11-14T04:15:25;6.50;99.90
21759;DHT22;11041;50.854;20.580;2022-11-14T04:17:51;6.50;99.90
21759;DHT22;11041;50.854;20.580;2022-11-14T04:20:18;6.50;99.90
21759;DHT22;11041;50.854;20.580;2022-11-14T04:22:45;6.50;99.90
21759;DHT22;11041;50.854;20.580;2022-11-14T04:25:12;6.50;99.90
21759;DHT22;11041;50.854;20.580;2022-11-14T04:27:38;6.50;99.90
21759;DHT22;11041;50.854;20.580;2022-11-14T04:30:05;6.60;99.90
21759;DHT22;11041;50.854;20.580;2022-11-14T04:32:32;6.60;99.90
21759;DHT22;11041;50.854;20.580;2022-11-14T04:34:59;6.60;99.90
21759;DHT22;11041;50.854;20.580;2022-11-14T04:37:25;6.60;99.90
21759;DHT22;11041;50.854;20.580;2022-11-14T04:39:52;6.60;99.90
21759;DHT22;11041;50.854;20.580;2022-11-14T04:42:19;6.50;99.90
21759;DHT22;11041;50.854;20.580;2022-11-14T04:44:45;6.50;99.90
21759;DHT22;11041;50.854;20.580;2022-11-14T04:47:12;6.50;99.90
21759;DHT22;11041;50.854;20.580;2022-11-14T04:49:38;6.50;99.90
21759;DHT22;11041;50.854;20.580;2022-11-14T04:52:04;6.50;99.90
21759;DHT22;11041;50.854;20.580;2022-11-14T04:54:31;6.50;99.90
21759;DHT22;11041;50.854;20.580;2022-11-14T04:56:57;6.50;99.90
21759;DHT22;11041;50.854;20.580;2022-11-14T04:59:24;6.50;99.90
21759;DHT22;11041;50.854;20.580;2022-11-14T05:01:50;6.50;99.90
21759;DHT22;11041;50.854;20.580;2022-11-14T05:04:17;6.60;99.90
21759;DHT22;11041;50.854;20.580;2022-11-14T05:06:44;6.60;99.90
21759;DHT22;11041;50.854;20.580;2022-11-14T05:09:11;6.60;99.90
21759;DHT22;11041;50.854;20.580;2022-11-14T05:11:39;6.50;99.90
21759;DHT22;11041;50.854;20.580;2022-11-14T05:14:05;6.60;99.90
21759;DHT22;11041;50.854;20.580;2022-11-14T05:16:32;6.60;99.90
21759;DHT22;11041;50.854;20.580;2022-11-14T05:18:58;6.60;99.90
21759;DHT22;11041;50.854;20.580;2022-11-14T05:21:25;6.60;99.90
21759;DHT22;11041;50.854;20.580;2022-11-14T05:23:51;6.50;99.90
21759;DHT22;11041;50.854;20.580;2022-11-14T05:26:18;6.50;99.90
21759;DHT22;11041;50.854;20.580;2022-11-14T05:28:44;6.50;99.90
21759;DHT22;11041;50.854;20.580;2022-11-14T05:31:13;6.50;99.90
21759;DHT22;11041;50.854;20.580;2022-11-14T05:33:43;6.40;99.90
21759;DHT22;11041;50.854;20.580;2022-11-14T05:36:14;6.40;99.90
21759;DHT22;11041;50.854;20.580;2022-11-14T05:38:42;6.40;99.90
21759;DHT22;11041;50.854;20.580;2022-11-14T05:41:12;6.50;99.90
21759;DHT22;11041;50.854;20.580;2022-11-14T05:43:40;6.50;99.90
21759;DHT22;11041;50.854;20.580;2022-11-14T05:46:10;6.50;99.90
21759;DHT22;11041;50.854;20.580;2022-11-14T05:48:39;6.50;99.90
21759;DHT22;11041;50.854;20.580;2022-11-14T05:51:07;6.50;99.90
21759;DHT22;11041;50.854;20.580;2022-11-14T05:53:36;6.50;99.90
21759;DHT22;11041;50.854;20.580;2022-11-14T05:56:05;6.50;99.90
21759;DHT22;11041;50.854;20.580;2022-11-14T05:58:35;6.40;99.90
21759;DHT22;11041;50.854;20.580;2022-11-14T06:01:16;6.40;99.90
21759;DHT22;11041;50.854;20.580;2022-11-14T06:03:46;6.50;99.90
21759;DHT22;11041;50.854;20.580;2022-11-14T06:06:17;6.50;99.90
21759;DHT22;11041;50.854;20.580;2022-11-14T06:08:47;6.50;99.90
21759;DHT22;11041;50.854;20.580;2022-11-14T06:11:17;6.50;99.90
21759;DHT22;11041;50.854;20.580;2022-11-14T06:13:46;6.50;99.90
21759;DHT22;11041;50.854;20.580;2022-11-14T06:16:17;6.60;99.90
21759;DHT22;11041;50.854;20.580;2022-11-14T06:18:45;6.50;99.90
21759;DHT22;11041;50.854;20.580;2022-11-14T06:21:14;6.50;99.90
21759;DHT22;11041;50.854;20.580;2022-11-14T06:24:04;6.50;99.90
21759;DHT22;11041;50.854;20.580;2022-11-14T06:26:52;6.50;99.90
21759;DHT22;11041;50.854;20.580;2022-11-14T06:29:19;6.60;99.90
21759;DHT22;11041;50.854;20.580;2022-11-14T06:31:45;6.60;99.90
21759;DHT22;11041;50.854;20.580;2022-11-14T06:34:12;6.60;99.90
21759;DHT22;11041;50.854;20.580;2022-11-14T06:36:38;6.60;99.90
21759;DHT22;11041;50.854;20.580;2022-11-14T06:39:05;6.60;99.90
21759;DHT22;11041;50.854;20.580;2022-11-14T06:41:31;6.70;99.90
21759;DHT22;11041;50.854;20.580;2022-11-14T06:43:58;6.70;99.90
21759;DHT22;11041;50.854;20.580;2022-11-14T06:46:40;6.70;99.90
21759;DHT22;11041;50.854;20.580;2022-11-14T06:49:06;6.70;99.90
21759;DHT22;11041;50.854;20.580;2022-11-14T06:51:33;6.70;99.90
21759;DHT22;11041;50.854;20.580;2022-11-14T06:53:59;6.70;99.90
21759;DHT22;11041;50.854;20.580;2022-11-14T06:56:26;6.70;99.90
21759;DHT22;11041;50.854;20.580;2022-11-14T06:58:52;6.70;99.90
21759;DHT22;11041;50.854;20.580;2022-11-14T07:01:22;6.70;99.90
21759;DHT22;11041;50.854;20.580;2022-11-14T07:04:14;6.70;99.90
21759;DHT22;11041;50.854;20.580;2022-11-14T07:07:06;6.70;99.90
21759;DHT22;11041;50.854;20.580;2022-11-14T07:09:35;6.70;99.90
21759;DHT22;11041;50.854;20.580;2022-11-14T07:12:17;6.80;99.90
21759;DHT22;11041;50.854;20.580;2022-11-14T07:15:21;6.80;99.90
21759;DHT22;11041;50.854;20.580;2022-11-14T07:17:48;6.80;99.90
21759;DHT22;11041;50.854;20.580;2022-11-14T07:20:15;6.80;99.90
21759;DHT22;11041;50.854;20.580;2022-11-14T07:22:46;6.90;99.90
21759;DHT22;11041;50.854;20.580;2022-11-14T07:25:13;6.90;99.90
21759;DHT22;11041;50.854;20.580;2022-11-14T07:27:40;7.00;99.90
21759;DHT22;11041;50.854;20.580;2022-11-14T07:30:06;7.00;99.90
21759;DHT22;11041;50.854;20.580;2022-11-14T07:32:33;7.00;99.90
21759;DHT22;11041;50.854;20.580;2022-11-14T07:35:00;7.10;99.90
21759;DHT22;11041;50.854;20.580;2022-11-14T07:37:26;7.10;99.90
21759;DHT22;11041;50.854;20.580;2022-11-14T07:39:53;7.20;99.90
21759;DHT22;11041;50.854;20.580;2022-11-14T07:42:19;7.10;99.90
21759;DHT22;11041;50.854;20.580;2022-11-14T07:44:45;7.10;99.90
21759;DHT22;11041;50.854;20.580;2022-11-14T07:47:12;7.10;99.90
21759;DHT22;11041;50.854;20.580;2022-11-14T07:49:38;7.20;99.90
21759;DHT22;11041;50.854;20.580;2022-11-14T07:52:05;7.20;99.90
21759;DHT22;11041;50.854;20.580;2022-11-14T07:54:35;7.20;99.90
21759;DHT22;11041;50.854;20.580;2022-11-14T07:57:03;7.20;99.90
21759;DHT22;11041;50.854;20.580;2022-11-14T07:59:30;7.20;99.90
21759;DHT22;11041;50.854;20.580;2022-11-14T08:01:56;7.30;99.90
21759;DHT22;11041;50.854;20.580;2022-11-14T08:04:23;7.30;99.90
21759;DHT22;11041;50.854;20.580;2022-11-14T08:06:49;7.20;99.90
21759;DHT22;11041;50.854;20.580;2022-11-14T08:09:16;7.20;99.90
21759;DHT22;11041;50.854;20.580;2022-11-14T08:11:42;7.20;99.90
21759;DHT22;11041;50.854;20.580;2022-11-14T08:14:15;7.20;99.90
21759;DHT22;11041;50.854;20.580;2022-11-14T08:16:42;7.30;99.90
21759;DHT22;11041;50.854;20.580;2022-11-14T08:19:08;7.30;99.90
21759;DHT22;11041;50.854;20.580;2022-11-14T08:21:35;7.40;99.90
21759;DHT22;11041;50.854;20.580;2022-11-14T08:24:01;7.40;99.90
21759;DHT22;11041;50.854;20.580;2022-11-14T08:26:28;7.40;99.90
21759;DHT22;11041;50.854;20.580;2022-11-14T08:28:54;7.20;99.90
21759;DHT22;11041;50.854;20.580;2022-11-14T08:31:21;7.40;99.90
21759;DHT22;11041;50.854;20.580;2022-11-14T08:33:47;7.40;99.90
21759;DHT22;11041;50.854;20.580;2022-11-14T08:36:17;7.50;99.90
21759;DHT22;11041;50.854;20.580;2022-11-14T08:38:44;7.50;99.90
21759;DHT22;11041;50.854;20.580;2022-11-14T08:41:11;7.60;99.90
21759;DHT22;11041;50.854;20.580;2022-11-14T08:43:37;7.60;99.90
21759;DHT22;11041;50.854;20.580;2022-11-14T08:46:04;7.60;99.90
21759;DHT22;11041;50.854;20.580;2022-11-14T08:48:31;7.60;99.90
21759;DHT22;11041;50.854;20.580;2022-11-14T08:51:03;7.70;99.90
21759;DHT22;11041;50.854;20.580;2022-11-14T08:53:32;7.70;99.90
21759;DHT22;11041;50.854;20.580;2022-11-14T08:56:00;7.70;99.90
21759;DHT22;11041;50.854;20.580;2022-11-14T08:58:28;7.70;99.90
21759;DHT22;11041;50.854;20.580;2022-11-14T09:01:04;7.60;99.90
21759;DHT22;11041;50.854;20.580;2022-11-14T09:03:32;7.60;99.90
21759;DHT22;11041;50.854;20.580;2022-11-14T09:06:00;7.60;99.90
21759;DHT22;11041;50.854;20.580;2022-11-14T09:08:28;7.50;99.90
21759;DHT22;11041;50.854;20.580;2022-11-14T09:10:59;7.50;99.90
21759;DHT22;11041;50.854;20.580;2022-11-14T09:13:27;7.60;99.90
21759;DHT22;11041;50.854;20.580;2022-11-14T09:15:53;7.60;99.90
21759;DHT22;11041;50.854;20.580;2022-11-14T09:18:20;7.70;99.90
21759;DHT22;11041;50.854;20.580;2022-11-14T09:20:46;7.70;99.90
21759;DHT22;11041;50.854;20.580;2022-11-14T09:23:12;7.70;99.90
21759;DHT22;11041;50.854;20.580;2022-11-14T09:25:39;7.80;99.90
21759;DHT22;11041;50.854;20.580;2022-11-14T09:28:06;7.80;99.90
21759;DHT22;11041;50.854;20.580;2022-11-14T09:30:35;7.90;99.90
21759;DHT22;11041;50.854;20.580;2022-11-14T09:33:03;8.00;99.90
21759;DHT22;11041;50.854;20.580;2022-11-14T09:35:31;8.00;99.90
21759;DHT22;11041;50.854;20.580;2022-11-14T09:38:01;8.10;99.90
21759;DHT22;11041;50.854;20.580;2022-11-14T09:40:33;8.10;99.90
21759;DHT22;11041;50.854;20.580;2022-11-14T09:46:22;8.30;99.90
21759;DHT22;11041;50.854;20.580;2022-11-14T09:48:53;8.30;99.90
21759;DHT22;11041;50.854;20.580;2022-11-14T09:51:26;8.30;99.90
21759;DHT22;11041;50.854;20.580;2022-11-14T09:54:17;8.30;99.90
21759;DHT22;11041;50.854;20.580;2022-11-14T09:56:48;8.40;99.90
21759;DHT22;11041;50.854;20.580;2022-11-14T09:59:16;8.40;99.90
21759;DHT22;11041;50.854;20.580;2022-11-14T10:08:03;8.50;99.90
21759;DHT22;11041;50.854;20.580;2022-11-14T10:10:55;8.40;99.90
21759;DHT22;11041;50.854;20.580;2022-11-14T10:22:17;8.50;99.90
21759;DHT22;11041;50.854;20.580;2022-11-14T10:25:00;8.40;99.90
21759;DHT22;11041;50.854;20.580;2022-11-14T10:27:52;8.40;99.90
21759;DHT22;11041;50.854;20.580;2022-11-14T10:30:39;8.40;99.90
21759;DHT22;11041;50.854;20.580;2022-11-14T10:33:38;8.40;99.90
21759;DHT22;11041;50.854;20.580;2022-11-14T10:39:16;8.30;99.90
21759;DHT22;11041;50.854;20.580;2022-11-14T10:42:14;8.40;99.90
21759;DHT22;11041;50.854;20.580;2022-11-14T10:44:55;8.40;99.90
21759;DHT22;11041;50.854;20.580;2022-11-14T10:47:36;8.40;99.90
21759;DHT22;11041;50.854;20.580;2022-11-14T10:50:20;8.50;99.90
21759;DHT22;11041;50.854;20.580;2022-11-14T10:52:55;8.60;99.90
21759;DHT22;11041;50.854;20.580;2022-11-14T10:55:27;8.80;99.90
21759;DHT22;11041;50.854;20.580;2022-11-14T10:57:54;8.80;99.90
21759;DHT22;11041;50.854;20.580;2022-11-14T11:00:21;8.70;99.90
21759;DHT22;11041;50.854;20.580;2022-11-14T11:02:57;8.80;99.90
21759;DHT22;11041;50.854;20.580;2022-11-14T11:05:27;8.70;99.90
21759;DHT22;11041;50.854;20.580;2022-11-14T11:07:58;8.70;99.90
21759;DHT22;11041;50.854;20.580;2022-11-14T11:10:44;8.60;99.90
21759;DHT22;11041;50.854;20.580;2022-11-14T11:13:53;8.60;99.90
21759;DHT22;11041;50.854;20.580;2022-11-14T11:16:24;8.60;99.90
21759;DHT22;11041;50.854;20.580;2022-11-14T11:18:53;8.60;99.90
21759;DHT22;11041;50.854;20.580;2022-11-14T11:21:49;8.60;99.90
21759;DHT22;11041;50.854;20.580;2022-11-14T11:24:35;8.60;99.90
21759;DHT22;11041;50.854;20.580;2022-11-14T11:27:27;8.60;99.90
21759;DHT22;11041;50.854;20.580;2022-11-14T11:30:05;8.70;99.90
21759;DHT22;11041;50.854;20.580;2022-11-14T11:32:40;8.60;99.90
21759;DHT22;11041;50.854;20.580;2022-11-14T11:35:14;8.70;99.90
21759;DHT22;11041;50.854;20.580;2022-11-14T11:37:54;8.70;99.90
21759;DHT22;11041;50.854;20.580;2022-11-14T11:40:27;8.70;99.90
21759;DHT22;11041;50.854;20.580;2022-11-14T11:45:21;8.60;99.90
21759;DHT22;11041;50.854;20.580;2022-11-14T11:48:12;8.60;99.90
21759;DHT22;11041;50.854;20.580;2022-11-14T11:50:43;8.50;99.90
21759;DHT22;11041;50.854;20.580;2022-11-14T11:53:30;8.50;99.90
21759;DHT22;11041;50.854;20.580;2022-11-14T11:56:15;8.50;99.90
21759;DHT22;11041;50.854;20.580;2022-11-14T11:58:54;8.60;99.90
21759;DHT22;11041;50.854;20.580;2022-11-14T12:01:42;8.60;99.90
21759;DHT22;11041;50.854;20.580;2022-11-14T12:04:09;8.70;99.90
21759;DHT22;11041;50.854;20.580;2022-11-14T12:06:46;8.70;99.90
21759;DHT22;11041;50.854;20.580;2022-11-14T12:09:26;8.70;99.90
21759;DHT22;11041;50.854;20.580;2022-11-14T12:12:09;8.70;99.90
21759;DHT22;11041;50.854;20.580;2022-11-14T12:31:04;8.80;99.90
21759;DHT22;11041;50.854;20.580;2022-11-14T12:33:55;8.80;99.90
21759;DHT22;11041;50.854;20.580;2022-11-14T12:36:30;8.80;99.90
21759;DHT22;11041;50.854;20.580;2022-11-14T12:38:59;8.80;99.90
21759;DHT22;11041;50.854;20.580;2022-11-14T12:41:32;8.80;99.90
21759;DHT22;11041;50.854;20.580;2022-11-14T12:52:41;8.80;99.90
21759;DHT22;11041;50.854;20.580;2022-11-14T13:01:05;8.80;99.90
21759;DHT22;11041;50.854;20.580;2022-11-14T13:04:25;8.80;99.90
21759;DHT22;11041;50.854;20.580;2022-11-14T13:10:27;8.80;99.90
21759;DHT22;11041;50.854;20.580;2022-11-14T13:13:07;8.80;99.90
21759;DHT22;11041;50.854;20.580;2022-11-14T13:16:02;8.80;99.90
21759;DHT22;11041;50.854;20.580;2022-11-14T13:27:27;8.80;99.90
21759;DHT22;11041;50.854;20.580;2022-11-14T13:29:56;8.70;99.90
21759;DHT22;11041;50.854;20.580;2022-11-14T13:41:25;8.70;99.90
21759;DHT22;11041;50.854;20.580;2022-11-14T13:52:42;8.60;99.90
21759;DHT22;11041;50.854;20.580;2022-11-14T14:29:03;8.30;99.90
21759;DHT22;11041;50.854;20.580;2022-11-14T14:32:16;8.30;99.90
21759;DHT22;11041;50.854;20.580;2022-11-14T14:34:57;8.30;99.90
21759;DHT22;11041;50.854;20.580;2022-11-14T14:37:27;8.30;99.90
21759;DHT22;11041;50.854;20.580;2022-11-14T14:39:56;8.30;99.90
21759;DHT22;11041;50.854;20.580;2022-11-14T14:42:33;8.30;99.90
21759;DHT22;11041;50.854;20.580;2022-11-14T14:45:09;8.20;99.90
21759;DHT22;11041;50.854;20.580;2022-11-14T14:48:20;8.20;99.90
21759;DHT22;11041;50.854;20.580;2022-11-14T14:50:48;8.20;99.90
21759;DHT22;11041;50.854;20.580;2022-11-14T14:55:59;8.20;99.90
21759;DHT22;11041;50.854;20.580;2022-11-14T14:58:30;8.20;99.90
21759;DHT22;11041;50.854;20.580;2022-11-14T15:01:11;8.20;99.90
21759;DHT22;11041;50.854;20.580;2022-11-14T15:03:43;8.10;99.90
21759;DHT22;11041;50.854;20.580;2022-11-14T15:06:29;8.10;99.90
21759;DHT22;11041;50.854;20.580;2022-11-14T15:11:45;8.10;99.90
21759;DHT22;11041;50.854;20.580;2022-11-14T15:14:22;8.10;99.90
21759;DHT22;11041;50.854;20.580;2022-11-14T15:17:03;8.10;99.90
21759;DHT22;11041;50.854;20.580;2022-11-14T15:19:41;8.00;99.90
21759;DHT22;11041;50.854;20.580;2022-11-14T15:27:51;7.90;99.90
21759;DHT22;11041;50.854;20.580;2022-11-14T15:30:26;7.90;99.90
21759;DHT22;11041;50.854;20.580;2022-11-14T15:40:39;7.80;99.90
21759;DHT22;11041;50.854;20.580;2022-11-14T15:46:40;7.80;99.90
21759;DHT22;11041;50.854;20.580;2022-11-14T15:49:29;7.80;99.90
21759;DHT22;11041;50.854;20.580;2022-11-14T16:01:16;7.80;99.90
21759;DHT22;11041;50.854;20.580;2022-11-14T16:03:55;7.70;99.90
21759;DHT22;11041;50.854;20.580;2022-11-14T16:07:13;7.60;99.90
21759;DHT22;11041;50.854;20.580;2022-11-14T16:09:44;7.60;99.90
21759;DHT22;11041;50.854;20.580;2022-11-14T16:12:11;7.50;99.90
21759;DHT22;11041;50.854;20.580;2022-11-14T16:16:08;7.50;99.90
21759;DHT22;11041;50.854;20.580;2022-11-14T16:18:10;7.60;99.90
21759;DHT22;11041;50.854;20.580;2022-11-14T16:20:38;7.50;99.90
21759;DHT22;11041;50.854;20.580;2022-11-14T16:23:08;7.40;99.90
21759;DHT22;11041;50.854;20.580;2022-11-14T16:25:38;7.50;99.90
21759;DHT22;11041;50.854;20.580;2022-11-14T16:28:04;7.50;99.90
21759;DHT22;11041;50.854;20.580;2022-11-14T16:30:31;7.50;99.90
21759;DHT22;11041;50.854;20.580;2022-11-14T16:32:58;7.50;99.90
21759;DHT22;11041;50.854;20.580;2022-11-14T16:35:25;7.40;99.90
21759;DHT22;11041;50.854;20.580;2022-11-14T16:37:55;7.40;99.90
21759;DHT22;11041;50.854;20.580;2022-11-14T16:40:24;7.40;99.90
21759;DHT22;11041;50.854;20.580;2022-11-14T16:42:57;7.40;99.90
21759;DHT22;11041;50.854;20.580;2022-11-14T16:45:25;7.50;99.90
21759;DHT22;11041;50.854;20.580;2022-11-14T16:47:52;7.50;99.90
21759;DHT22;11041;50.854;20.580;2022-11-14T16:50:19;7.50;99.90
21759;DHT22;11041;50.854;20.580;2022-11-14T16:52:45;7.50;99.90
21759;DHT22;11041;50.854;20.580;2022-11-14T16:55:12;7.40;99.90
21759;DHT22;11041;50.854;20.580;2022-11-14T16:57:39;7.40;99.90
21759;DHT22;11041;50.854;20.580;2022-11-14T17:00:08;7.40;99.90
21759;DHT22;11041;50.854;20.580;2022-11-14T17:02:39;7.40;99.90
21759;DHT22;11041;50.854;20.580;2022-11-14T17:05:07;7.40;99.90
21759;DHT22;11041;50.854;20.580;2022-11-14T17:07:33;7.40;99.90
21759;DHT22;11041;50.854;20.580;2022-11-14T17:10:00;7.40;99.90
21759;DHT22;11041;50.854;20.580;2022-11-14T17:12:27;7.40;99.90
21759;DHT22;11041;50.854;20.580;2022-11-14T17:14:54;7.40;99.90
21759;DHT22;11041;50.854;20.580;2022-11-14T17:17:20;7.30;99.90
21759;DHT22;11041;50.854;20.580;2022-11-14T17:19:47;7.30;99.90
21759;DHT22;11041;50.854;20.580;2022-11-14T17:22:16;7.20;99.90
21759;DHT22;11041;50.854;20.580;2022-11-14T17:24:45;7.20;99.90
21759;DHT22;11041;50.854;20.580;2022-11-14T17:27:11;7.20;99.90
21759;DHT22;11041;50.854;20.580;2022-11-14T17:29:38;7.20;99.90
21759;DHT22;11041;50.854;20.580;2022-11-14T17:32:04;7.20;99.90
21759;DHT22;11041;50.854;20.580;2022-11-14T17:34:33;7.20;99.90
21759;DHT22;11041;50.854;20.580;2022-11-14T17:36:59;7.20;99.90
21759;DHT22;11041;50.854;20.580;2022-11-14T17:39:26;7.10;99.90
21759;DHT22;11041;50.854;20.580;2022-11-14T17:41:53;7.20;99.90
21759;DHT22;11041;50.854;20.580;2022-11-14T17:44:19;7.20;99.90
21759;DHT22;11041;50.854;20.580;2022-11-14T17:46:46;7.20;99.90
21759;DHT22;11041;50.854;20.580;2022-11-14T17:49:13;7.20;99.90
21759;DHT22;11041;50.854;20.580;2022-11-14T17:51:40;7.20;99.90
21759;DHT22;11041;50.854;20.580;2022-11-14T17:54:06;7.20;99.90
21759;DHT22;11041;50.854;20.580;2022-11-14T17:56:33;7.20;99.90
21759;DHT22;11041;50.854;20.580;2022-11-14T17:59:00;7.20;99.90
21759;DHT22;11041;50.854;20.580;2022-11-14T18:01:26;7.20;99.90
21759;DHT22;11041;50.854;20.580;2022-11-14T18:03:56;7.20;99.90
21759;DHT22;11041;50.854;20.580;2022-11-14T18:06:22;7.20;99.90
21759;DHT22;11041;50.854;20.580;2022-11-14T18:08:50;7.10;99.90
21759;DHT22;11041;50.854;20.580;2022-11-14T18:11:17;7.10;99.90
21759;DHT22;11041;50.854;20.580;2022-11-14T18:13:45;7.10;99.90
21759;DHT22;11041;50.854;20.580;2022-11-14T18:16:15;7.10;99.90
21759;DHT22;11041;50.854;20.580;2022-11-14T18:18:44;7.10;99.90
21759;DHT22;11041;50.854;20.580;2022-11-14T18:21:16;7.10;99.90
21759;DHT22;11041;50.854;20.580;2022-11-14T18:23:56;7.10;99.90
21759;DHT22;11041;50.854;20.580;2022-11-14T18:26:26;7.10;99.90
21759;DHT22;11041;50.854;20.580;2022-11-14T18:28:58;7.10;99.90
21759;DHT22;11041;50.854;20.580;2022-11-14T18:31:27;7.10;99.90